createdAt,value
2022-10-22T00:01:36.705Z,11.24
2022-10-22T00:04:06.001Z,11.24
2022-10-22T00:06:35.367Z,11.24
2022-10-22T00:09:04.469Z,11.24
2022-10-22T00:11:33.785Z,11.24
2022-10-22T00:14:04.295Z,11.28
2022-10-22T00:16:33.531Z,11.28
2022-10-22T00:19:02.787Z,11.24
2022-10-22T00:21:32.065Z,11.24
2022-10-22T00:24:01.043Z,11.25
2022-10-22T00:26:30.279Z,11.23
2022-10-22T00:28:59.190Z,11.25
2022-10-22T00:31:29.837Z,11.26
2022-10-22T00:33:58.892Z,11.26
2022-10-22T00:36:28.145Z,11.26
2022-10-22T00:38:57.131Z,11.27
2022-10-22T00:41:26.415Z,11.29
2022-10-22T00:43:56.544Z,11.28
2022-10-22T00:46:25.846Z,11.26
2022-10-22T00:48:56.389Z,11.29
2022-10-22T00:51:25.874Z,11.30
2022-10-22T00:53:56.273Z,11.30
2022-10-22T00:56:25.609Z,11.30
2022-10-22T00:58:55.043Z,11.31
2022-10-22T01:01:25.696Z,11.33
2022-10-22T01:03:56.229Z,11.32
2022-10-22T01:06:26.017Z,11.33
2022-10-22T01:08:57.490Z,11.32
2022-10-22T01:11:28.277Z,11.34
2022-10-22T01:13:59.504Z,11.33
2022-10-22T01:16:30.842Z,11.30
2022-10-22T01:19:03.073Z,11.28
2022-10-22T01:21:32.963Z,11.30
2022-10-22T01:24:19.745Z,11.31
2022-10-22T01:26:56.202Z,11.32
2022-10-22T01:29:27.453Z,11.29
2022-10-22T01:31:58.209Z,11.31
2022-10-22T01:34:27.324Z,11.29
2022-10-22T01:36:56.858Z,11.31
2022-10-22T01:39:25.931Z,11.29
2022-10-22T01:41:55.864Z,11.28
2022-10-22T01:44:30.526Z,11.30
2022-10-22T01:47:04.181Z,11.26
2022-10-22T01:49:35.101Z,11.28
2022-10-22T01:52:04.843Z,11.31
2022-10-22T01:54:35.385Z,11.34
2022-10-22T01:57:08.359Z,11.31
2022-10-22T01:59:43.336Z,11.29
2022-10-22T02:02:13.774Z,11.30
2022-10-22T02:04:44.300Z,11.30
2022-10-22T02:07:14.214Z,11.29
2022-10-22T02:09:43.553Z,11.31
2022-10-22T02:12:12.656Z,11.32
2022-10-22T02:14:44.342Z,11.34
2022-10-22T02:17:14.687Z,11.36
2022-10-22T02:19:45.704Z,11.36
2022-10-22T02:22:28.738Z,11.31
2022-10-22T02:24:57.992Z,11.32
2022-10-22T02:27:28.334Z,11.31
2022-10-22T02:29:59.872Z,11.29
2022-10-22T02:32:29.977Z,11.31
2022-10-22T02:34:59.365Z,11.30
2022-10-22T02:37:28.453Z,11.33
2022-10-22T02:39:57.721Z,11.32
2022-10-22T02:42:26.873Z,11.35
2022-10-22T02:44:56.145Z,11.34
2022-10-22T02:47:26.649Z,11.31
2022-10-22T02:49:55.879Z,11.33
2022-10-22T02:52:24.928Z,11.34
2022-10-22T02:54:54.213Z,11.33
2022-10-22T02:57:23.342Z,11.31
2022-10-22T02:59:52.724Z,11.32
2022-10-22T03:02:21.937Z,11.35
2022-10-22T03:04:52.601Z,11.34
2022-10-22T03:07:21.650Z,11.31
2022-10-22T03:09:50.936Z,11.30
2022-10-22T03:12:20.001Z,11.31
2022-10-22T03:14:49.237Z,11.32
2022-10-22T03:17:18.257Z,11.29
2022-10-22T03:19:47.583Z,11.29
2022-10-22T03:22:18.718Z,11.26
2022-10-22T03:24:48.871Z,11.27
2022-10-22T03:27:18.633Z,11.29
2022-10-22T03:29:48.179Z,11.28
2022-10-22T03:32:17.163Z,11.26
2022-10-22T03:34:46.561Z,11.21
2022-10-22T03:37:15.713Z,11.22
2022-10-22T03:39:46.493Z,11.22
2022-10-22T03:42:16.362Z,11.22
2022-10-22T03:44:45.588Z,11.23
2022-10-22T03:47:14.685Z,11.23
2022-10-22T03:49:43.907Z,11.24
2022-10-22T03:52:13.914Z,11.22
2022-10-22T03:54:43.350Z,11.22
2022-10-22T03:57:13.931Z,11.24
2022-10-22T03:59:43.960Z,11.20
2022-10-22T04:02:13.446Z,11.21
2022-10-22T04:04:42.692Z,11.20
2022-10-22T04:07:11.839Z,11.19
2022-10-22T04:09:41.094Z,11.22
2022-10-22T04:12:10.034Z,11.20
2022-10-22T04:14:40.716Z,11.24
2022-10-22T04:17:09.715Z,11.22
2022-10-22T04:19:39.081Z,11.21
2022-10-22T04:22:08.055Z,11.22
2022-10-22T04:24:37.990Z,11.21
2022-10-22T04:27:07.035Z,11.20
2022-10-22T04:29:36.313Z,11.18
2022-10-22T04:32:06.774Z,11.20
2022-10-22T04:34:36.063Z,11.20
2022-10-22T04:37:05.058Z,11.20
2022-10-22T04:39:34.344Z,11.20
2022-10-22T04:42:04.013Z,11.19
2022-10-22T04:44:33.384Z,11.16
2022-10-22T04:47:02.338Z,11.15
2022-10-22T04:49:33.059Z,11.15
2022-10-22T04:52:02.022Z,11.18
2022-10-22T04:54:33.126Z,11.16
2022-10-22T04:57:02.342Z,11.16
2022-10-22T04:59:31.635Z,11.12
2022-10-22T05:02:00.640Z,11.16
2022-10-22T05:04:29.980Z,11.13
2022-10-22T05:07:00.460Z,11.13
2022-10-22T05:09:29.767Z,11.12
2022-10-22T05:11:58.745Z,11.13
2022-10-22T05:14:28.046Z,11.14
2022-10-22T05:16:57.083Z,11.16
2022-10-22T05:19:27.227Z,11.14
2022-10-22T05:21:56.982Z,11.14
2022-10-22T05:24:27.801Z,11.14
2022-10-22T05:26:57.454Z,11.09
2022-10-22T05:29:26.979Z,11.13
2022-10-22T05:31:56.140Z,11.15
2022-10-22T05:34:25.480Z,11.15
2022-10-22T05:36:54.551Z,11.11
2022-10-22T05:39:23.784Z,11.15
2022-10-22T05:41:54.948Z,11.12
2022-10-22T05:44:24.237Z,11.11
2022-10-22T05:46:53.317Z,11.10
2022-10-22T05:49:22.571Z,11.10
2022-10-22T05:51:51.577Z,11.09
2022-10-22T05:54:22.271Z,11.12
2022-10-22T05:56:51.263Z,11.05
2022-10-22T05:59:22.020Z,11.11
2022-10-22T06:01:51.144Z,11.02
2022-10-22T06:04:20.449Z,11.05
2022-10-22T06:06:49.727Z,11.06
2022-10-22T06:09:19.647Z,11.08
2022-10-22T06:11:48.660Z,11.12
2022-10-22T06:14:18.302Z,11.12
2022-10-22T06:16:48.926Z,11.15
2022-10-22T06:19:19.219Z,11.12
2022-10-22T06:21:48.508Z,11.13
2022-10-22T06:24:17.939Z,11.16
2022-10-22T06:26:50.639Z,11.18
2022-10-22T06:29:20.070Z,11.19
2022-10-22T06:31:50.503Z,11.20
2022-10-22T06:34:20.065Z,11.22
2022-10-22T06:36:49.179Z,11.20
2022-10-22T06:39:18.770Z,11.21
2022-10-22T06:41:47.792Z,11.25
2022-10-22T06:44:17.505Z,11.23
2022-10-22T06:46:46.481Z,11.28
2022-10-22T06:49:17.925Z,11.28
2022-10-22T06:51:47.329Z,11.31
2022-10-22T06:54:16.645Z,11.32
2022-10-22T06:56:45.613Z,11.34
2022-10-22T06:59:14.898Z,11.37
2022-10-22T07:01:43.985Z,11.39
2022-10-22T07:04:13.469Z,11.40
2022-10-22T07:06:43.848Z,11.41
2022-10-22T07:09:13.394Z,11.40
2022-10-22T07:11:42.983Z,11.45
2022-10-22T07:14:12.518Z,11.47
2022-10-22T07:16:43.314Z,11.48
2022-10-22T07:19:12.727Z,11.49
2022-10-22T07:21:43.242Z,11.50
2022-10-22T07:24:12.656Z,11.49
2022-10-22T07:26:41.664Z,11.49
2022-10-22T07:29:11.003Z,11.52
2022-10-22T07:31:40.229Z,11.52
2022-10-22T07:34:09.791Z,11.54
2022-10-22T07:36:38.886Z,11.55
2022-10-22T07:39:09.616Z,11.56
2022-10-22T07:41:38.698Z,11.58
2022-10-22T07:44:08.057Z,11.60
2022-10-22T07:46:37.077Z,11.62
2022-10-22T07:49:06.417Z,11.62
2022-10-22T07:51:35.372Z,11.64
2022-10-22T07:54:05.257Z,11.66
2022-10-22T07:56:35.799Z,11.71
2022-10-22T07:59:05.311Z,11.73
2022-10-22T08:01:34.301Z,11.76
2022-10-22T08:04:03.560Z,11.79
2022-10-22T08:06:32.534Z,11.82
2022-10-22T08:09:01.959Z,11.86
2022-10-22T08:11:31.199Z,11.89
2022-10-22T08:14:01.906Z,11.91
2022-10-22T08:16:30.938Z,11.90
2022-10-22T08:19:00.316Z,11.96
2022-10-22T08:21:29.350Z,11.97
2022-10-22T08:23:58.726Z,11.99
2022-10-22T08:26:27.818Z,12.05
2022-10-22T08:28:57.060Z,12.05
2022-10-22T08:31:27.505Z,12.12
2022-10-22T08:33:56.750Z,12.13
2022-10-22T08:36:25.694Z,12.16
2022-10-22T08:38:54.928Z,12.24
2022-10-22T08:41:27.154Z,12.30
2022-10-22T08:44:23.335Z,12.33
2022-10-22T08:47:06.361Z,12.29
2022-10-22T08:49:39.707Z,12.41
2022-10-22T08:52:10.848Z,12.39
2022-10-22T08:54:41.980Z,12.39
2022-10-22T08:57:34.735Z,12.45
2022-10-22T09:00:05.899Z,12.51
2022-10-22T09:02:39.740Z,12.48
2022-10-22T09:05:16.826Z,12.54
2022-10-22T09:07:50.218Z,12.59
2022-10-22T09:10:20.276Z,12.62
2022-10-22T09:12:49.860Z,12.65
2022-10-22T09:15:20.040Z,12.68
2022-10-22T09:17:56.986Z,12.73
2022-10-22T09:20:28.683Z,12.74
2022-10-22T09:22:59.809Z,12.80
2022-10-22T09:25:29.869Z,12.83
2022-10-22T09:27:59.543Z,12.86
2022-10-22T09:30:30.085Z,12.91
2022-10-22T09:33:08.066Z,12.92
2022-10-22T09:35:42.153Z,12.98
2022-10-22T09:38:11.334Z,13.04
2022-10-22T09:40:45.215Z,13.09
2022-10-22T09:43:15.083Z,13.11
2022-10-22T09:45:44.574Z,13.18
2022-10-22T09:48:20.405Z,13.23
2022-10-22T09:50:50.642Z,13.26
2022-10-22T09:53:20.632Z,13.25
2022-10-22T09:55:53.886Z,13.35
2022-10-22T09:58:23.062Z,13.44
2022-10-22T10:00:53.884Z,13.45
2022-10-22T10:03:25.451Z,13.49
2022-10-22T10:05:55.569Z,13.53
2022-10-22T10:08:24.964Z,13.55
2022-10-22T10:10:55.606Z,13.59
2022-10-22T10:13:31.395Z,13.65
2022-10-22T10:16:02.183Z,13.69
2022-10-22T10:18:35.249Z,13.78
2022-10-22T10:21:06.307Z,13.83
2022-10-22T10:23:36.573Z,13.88
2022-10-22T10:26:06.770Z,13.91
2022-10-22T10:28:45.763Z,13.91
2022-10-22T10:31:17.716Z,13.95
2022-10-22T10:33:50.748Z,14.04
2022-10-22T10:36:21.189Z,14.10
2022-10-22T10:38:53.178Z,14.17
2022-10-22T10:41:25.065Z,14.14
2022-10-22T10:44:07.076Z,14.16
2022-10-22T10:46:37.625Z,14.19
2022-10-22T10:49:09.844Z,14.28
2022-10-22T10:51:39.900Z,14.33
2022-10-22T10:54:20.633Z,14.13
2022-10-22T10:56:51.812Z,14.29
2022-10-22T10:59:23.460Z,14.38
2022-10-22T11:01:58.798Z,14.33
2022-10-22T11:04:42.980Z,14.43
2022-10-22T11:07:23.401Z,14.49
2022-10-22T11:10:05.034Z,14.51
2022-10-22T11:12:35.015Z,14.55
2022-10-22T11:15:05.040Z,14.45
2022-10-22T11:17:36.743Z,14.53
2022-10-22T11:20:06.400Z,14.61
2022-10-22T11:22:37.449Z,14.63
2022-10-22T11:25:07.595Z,14.64
2022-10-22T11:27:39.267Z,14.68
2022-10-22T11:30:13.396Z,14.73
2022-10-22T11:32:43.541Z,14.76
2022-10-22T11:35:14.392Z,14.76
2022-10-22T11:37:45.474Z,14.76
2022-10-22T11:40:16.471Z,14.79
2022-10-22T11:42:49.658Z,14.82
2022-10-22T11:45:28.927Z,14.84
2022-10-22T11:47:59.927Z,14.85
2022-10-22T11:50:29.397Z,14.88
2022-10-22T11:53:04.045Z,14.90
2022-10-22T11:55:34.934Z,14.92
2022-10-22T11:58:04.315Z,14.91
2022-10-22T12:00:37.365Z,14.92
2022-10-22T12:03:17.016Z,14.94
2022-10-22T12:05:46.349Z,14.97
2022-10-22T12:08:21.684Z,14.97
2022-10-22T12:11:00.230Z,14.99
2022-10-22T12:13:30.442Z,14.98
2022-10-22T12:15:59.848Z,15.01
2022-10-22T12:18:29.836Z,15.00
2022-10-22T12:20:58.769Z,15.05
2022-10-22T12:23:30.634Z,15.06
2022-10-22T12:25:59.651Z,15.08
2022-10-22T12:28:28.867Z,15.06
2022-10-22T12:31:00.790Z,15.07
2022-10-22T12:33:32.826Z,15.12
2022-10-22T12:36:04.252Z,15.12
2022-10-22T12:38:34.958Z,15.15
2022-10-22T12:41:03.992Z,15.17
2022-10-22T12:43:33.667Z,15.18
2022-10-22T12:46:02.696Z,15.16
2022-10-22T12:48:34.525Z,15.19
2022-10-22T12:51:04.159Z,15.25
2022-10-22T12:53:37.921Z,15.25
2022-10-22T12:56:07.927Z,15.27
2022-10-22T12:58:38.753Z,15.28
2022-10-22T13:01:07.904Z,15.35
2022-10-22T13:03:38.711Z,15.36
2022-10-22T13:06:14.322Z,15.28
2022-10-22T13:08:45.050Z,15.27
2022-10-22T13:11:14.130Z,15.35
2022-10-22T13:13:43.873Z,15.36
2022-10-22T13:16:16.905Z,15.38
2022-10-22T13:18:46.847Z,15.37
2022-10-22T13:21:27.140Z,15.40
2022-10-22T13:23:59.074Z,15.42
2022-10-22T13:26:32.462Z,15.43
2022-10-22T13:29:02.573Z,15.44
2022-10-22T13:31:33.661Z,15.44
2022-10-22T13:34:09.716Z,15.53
2022-10-22T13:36:40.960Z,15.50
2022-10-22T13:39:15.394Z,15.50
2022-10-22T13:41:44.636Z,15.54
2022-10-22T13:44:13.984Z,15.55
2022-10-22T13:46:43.628Z,15.61
2022-10-22T13:49:14.315Z,15.58
2022-10-22T13:51:43.555Z,15.65
2022-10-22T13:54:16.719Z,15.67
2022-10-22T13:56:45.802Z,15.65
2022-10-22T13:59:17.236Z,15.39
2022-10-22T14:01:48.943Z,15.52
2022-10-22T14:04:18.193Z,15.66
2022-10-22T14:06:47.277Z,15.64
2022-10-22T14:09:18.194Z,15.55
2022-10-22T14:11:47.339Z,15.63
2022-10-22T14:14:17.448Z,15.58
2022-10-22T14:16:46.492Z,15.39
2022-10-22T14:19:15.960Z,15.57
2022-10-22T14:21:45.106Z,15.63
2022-10-22T14:24:14.477Z,15.56
2022-10-22T14:26:45.007Z,15.66
2022-10-22T14:29:14.257Z,15.69
2022-10-22T14:31:44.588Z,15.72
2022-10-22T14:34:15.718Z,15.72
2022-10-22T14:36:44.929Z,15.24
2022-10-22T14:39:14.239Z,15.62
2022-10-22T14:41:44.794Z,15.56
2022-10-22T14:44:14.595Z,15.64
2022-10-22T14:46:44.574Z,15.67
2022-10-22T14:49:14.038Z,15.73
2022-10-22T14:51:43.176Z,15.73
2022-10-22T14:54:13.027Z,15.66
2022-10-22T14:56:42.152Z,15.70
2022-10-22T14:59:12.951Z,15.70
2022-10-22T15:01:43.053Z,15.74
2022-10-22T15:04:12.352Z,15.74
2022-10-22T15:06:41.445Z,15.75
2022-10-22T15:09:10.898Z,15.64
2022-10-22T15:11:40.075Z,15.63
2022-10-22T15:14:09.526Z,15.69
2022-10-22T15:16:40.036Z,15.70
2022-10-22T15:19:11.326Z,15.62
2022-10-22T15:21:43.581Z,15.28
2022-10-22T15:24:33.555Z,15.25
2022-10-22T15:27:03.469Z,15.47
2022-10-22T15:29:35.221Z,15.59
2022-10-22T15:32:07.633Z,15.67
2022-10-22T15:34:37.387Z,15.54
2022-10-22T15:37:06.959Z,15.55
2022-10-22T15:39:36.502Z,15.57
2022-10-22T15:42:05.560Z,15.49
2022-10-22T15:44:35.054Z,15.57
2022-10-22T15:47:06.491Z,15.64
2022-10-22T15:49:36.471Z,15.64
2022-10-22T15:52:05.814Z,15.63
2022-10-22T15:54:35.088Z,15.60
2022-10-22T15:57:08.712Z,15.42
2022-10-22T15:59:38.125Z,15.47
2022-10-22T16:02:10.519Z,15.60
2022-10-22T16:04:39.820Z,15.56
2022-10-22T16:07:08.823Z,15.61
2022-10-22T16:09:38.339Z,15.64
2022-10-22T16:12:07.551Z,15.66
2022-10-22T16:14:36.813Z,15.62
2022-10-22T16:17:05.900Z,15.65
2022-10-22T16:19:36.668Z,15.58
2022-10-22T16:22:05.692Z,15.66
2022-10-22T16:24:35.011Z,15.69
2022-10-22T16:27:04.070Z,15.57
2022-10-22T16:29:33.430Z,15.67
2022-10-22T16:32:02.424Z,15.68
2022-10-22T16:34:31.780Z,15.59
2022-10-22T16:37:02.748Z,15.65
2022-10-22T16:39:32.118Z,15.71
2022-10-22T16:42:01.163Z,15.42
2022-10-22T16:44:30.531Z,15.48
2022-10-22T16:46:59.549Z,15.43
2022-10-22T16:49:28.852Z,15.51
2022-10-22T16:51:57.973Z,15.34
2022-10-22T16:54:28.787Z,15.17
2022-10-22T16:56:57.825Z,15.44
2022-10-22T16:59:27.189Z,15.20
2022-10-22T17:01:56.277Z,15.20
2022-10-22T17:04:25.640Z,15.17
2022-10-22T17:06:54.718Z,15.12
2022-10-22T17:09:24.500Z,15.29
2022-10-22T17:11:54.919Z,15.54
2022-10-22T17:14:24.255Z,15.60
2022-10-22T17:16:54.313Z,15.65
2022-10-22T17:19:23.592Z,15.67
2022-10-22T17:21:53.680Z,15.72
2022-10-22T17:24:27.432Z,15.77
2022-10-22T17:26:57.908Z,15.79
2022-10-22T17:29:27.319Z,15.74
2022-10-22T17:31:58.628Z,15.74
2022-10-22T17:34:30.384Z,15.75
2022-10-22T17:37:00.308Z,15.76
2022-10-22T17:39:29.900Z,15.82
2022-10-22T17:42:00.298Z,15.85
2022-10-22T17:44:29.648Z,15.85
2022-10-22T17:47:00.350Z,15.84
2022-10-22T17:49:29.648Z,15.84
2022-10-22T17:54:32.913Z,15.85
2022-10-22T17:57:03.346Z,15.86
2022-10-22T17:59:32.789Z,15.84
2022-10-22T18:02:02.439Z,15.85
2022-10-22T18:04:32.178Z,15.90
2022-10-22T18:07:01.177Z,15.89
2022-10-22T18:09:30.506Z,15.90
2022-10-22T18:11:59.479Z,15.92
2022-10-22T18:14:30.202Z,15.94
2022-10-22T18:16:59.245Z,16.01
2022-10-22T18:19:28.554Z,15.95
2022-10-22T18:21:57.610Z,15.95
2022-10-22T18:24:26.976Z,15.96
2022-10-22T18:26:56.096Z,16.04
2022-10-22T18:29:25.446Z,15.99
2022-10-22T18:31:55.904Z,15.97
2022-10-22T18:34:25.227Z,16.01
2022-10-22T18:36:54.619Z,15.78
2022-10-22T18:39:24.323Z,15.89
2022-10-22T18:41:53.328Z,15.97
2022-10-22T18:44:23.881Z,15.84
2022-10-22T18:46:56.096Z,15.95
2022-10-22T18:49:25.447Z,15.96
2022-10-22T18:51:54.504Z,16.00
2022-10-22T18:54:24.735Z,15.88
2022-10-22T18:56:54.949Z,15.60
2022-10-22T18:59:26.203Z,15.72
2022-10-22T19:01:57.742Z,15.66
2022-10-22T19:04:31.093Z,15.60
2022-10-22T19:07:00.222Z,15.45
2022-10-22T19:09:29.567Z,15.54
2022-10-22T19:11:58.646Z,15.50
2022-10-22T19:14:28.008Z,15.52
2022-10-22T19:16:58.463Z,15.30
2022-10-22T19:19:27.767Z,15.40
2022-10-22T19:21:59.611Z,15.54
2022-10-22T19:24:29.571Z,15.66
2022-10-22T19:26:58.670Z,15.54
2022-10-22T19:29:27.961Z,15.53
2022-10-22T19:31:58.579Z,15.44
2022-10-22T19:34:27.935Z,15.43
2022-10-22T19:36:57.043Z,15.54
2022-10-22T19:39:26.368Z,15.70
2022-10-22T19:41:55.678Z,15.72
2022-10-22T19:44:24.987Z,15.66
2022-10-22T19:46:54.013Z,15.75
2022-10-22T19:49:24.793Z,15.64
2022-10-22T19:51:53.961Z,15.78
2022-10-22T19:54:23.345Z,15.82
2022-10-22T19:56:52.489Z,15.82
2022-10-22T19:59:22.905Z,15.86
2022-10-22T20:01:52.046Z,15.83
2022-10-22T20:04:25.165Z,15.90
2022-10-22T20:06:55.768Z,15.89
2022-10-22T20:09:25.635Z,15.90
2022-10-22T20:11:54.864Z,15.90
2022-10-22T20:14:24.156Z,15.91
2022-10-22T20:16:53.246Z,15.94
2022-10-22T20:19:26.189Z,15.96
2022-10-22T20:21:56.705Z,15.96
2022-10-22T20:24:26.040Z,15.94
2022-10-22T20:26:57.544Z,15.84
2022-10-22T20:29:26.971Z,15.62
2022-10-22T20:31:56.017Z,15.71
2022-10-22T20:34:25.352Z,15.87
2022-10-22T20:36:54.382Z,15.94
2022-10-22T20:39:25.113Z,15.91
2022-10-22T20:41:54.152Z,15.93
2022-10-22T20:44:23.437Z,15.93
2022-10-22T20:46:52.742Z,15.96
2022-10-22T20:49:22.069Z,15.95
2022-10-22T20:51:51.157Z,15.93
2022-10-22T20:54:20.502Z,15.93
2022-10-22T20:56:51.015Z,16.02
2022-10-22T20:59:20.274Z,16.04
2022-10-22T21:01:49.899Z,15.99
2022-10-22T21:04:19.918Z,15.97
2022-10-22T21:06:50.380Z,15.98
2022-10-22T21:09:19.753Z,16.01
2022-10-22T21:11:50.294Z,15.96
2022-10-22T21:14:23.163Z,15.95
2022-10-22T21:16:52.985Z,15.97
2022-10-22T21:19:23.104Z,15.99
2022-10-22T21:21:52.231Z,15.91
2022-10-22T21:24:24.813Z,16.04
2022-10-22T21:26:55.366Z,15.95
2022-10-22T21:29:25.076Z,15.90
2022-10-22T21:31:54.400Z,15.91
2022-10-22T21:34:23.746Z,15.88
2022-10-22T21:36:53.122Z,15.66
2022-10-22T21:39:22.498Z,15.63
2022-10-22T21:41:51.517Z,15.66
2022-10-22T21:44:22.276Z,15.77
2022-10-22T21:46:51.262Z,15.79
2022-10-22T21:49:20.662Z,15.73
2022-10-22T21:51:49.698Z,15.76
2022-10-22T21:54:19.009Z,15.85
2022-10-22T21:56:49.142Z,15.90
2022-10-22T21:59:18.359Z,15.86
2022-10-22T22:01:48.865Z,15.62
2022-10-22T22:04:18.258Z,15.61
2022-10-22T22:06:47.299Z,15.63
2022-10-22T22:09:16.570Z,15.32
2022-10-22T22:11:45.753Z,15.48
2022-10-22T22:14:15.081Z,15.59
2022-10-22T22:16:44.151Z,15.77
2022-10-22T22:19:15.071Z,15.60
2022-10-22T22:21:44.110Z,15.66
2022-10-22T22:24:13.509Z,15.72
2022-10-22T22:26:42.577Z,15.75
2022-10-22T22:29:11.960Z,15.85
2022-10-22T22:31:43.666Z,15.76
2022-10-22T22:34:14.984Z,15.77
2022-10-22T22:36:45.562Z,15.83
2022-10-22T22:39:16.044Z,15.51
2022-10-22T22:41:45.209Z,15.73
2022-10-22T22:44:14.732Z,15.76
2022-10-22T22:46:43.887Z,15.71
2022-10-22T22:49:15.216Z,15.70
2022-10-22T22:51:44.894Z,15.71
2022-10-22T22:54:14.202Z,15.74
2022-10-22T22:56:43.315Z,15.81
2022-10-22T22:59:12.684Z,15.79
2022-10-22T23:01:41.770Z,15.82
2022-10-22T23:04:16.507Z,15.79
2022-10-22T23:06:45.634Z,15.83
2022-10-22T23:09:15.590Z,15.84
2022-10-22T23:11:45.028Z,15.91
2022-10-22T23:14:15.601Z,15.85
2022-10-22T23:16:46.187Z,15.79
2022-10-22T23:19:18.572Z,15.80
2022-10-22T23:21:48.178Z,15.86
2022-10-22T23:24:18.669Z,15.61
2022-10-22T23:26:48.360Z,15.76
2022-10-22T23:29:18.322Z,15.77
2022-10-22T23:31:47.524Z,15.81
2022-10-22T23:36:48.672Z,15.88
2022-10-22T23:39:19.441Z,15.89
2022-10-22T23:41:48.435Z,15.78
2022-10-22T23:44:17.796Z,15.76
2022-10-22T23:46:46.756Z,15.75
2022-10-22T23:49:16.354Z,15.82
2022-10-22T23:51:46.686Z,15.83
2022-10-22T23:54:16.642Z,15.85
2022-10-22T23:56:45.952Z,15.83
2022-10-22T23:59:15.497Z,15.87
